sensor_id;sensor_type;location;lat;lon;timestamp;temperature;humidity
19692;DHT22;42748;50.016;19.890;2022-12-29T00:00:56;3.30;99.90
19692;DHT22;42748;50.016;19.890;2022-12-29T00:03:26;3.30;99.90
19692;DHT22;42748;50.016;19.890;2022-12-29T00:05:57;3.30;99.90
19692;DHT22;42748;50.016;19.890;2022-12-29T00:08:25;3.30;99.90
19692;DHT22;42748;50.016;19.890;2022-12-29T00:11:12;3.30;99.90
19692;DHT22;42748;50.016;19.890;2022-12-29T00:13:40;3.30;99.90
19692;DHT22;42748;50.016;19.890;2022-12-29T00:16:27;3.40;99.90
19692;DHT22;42748;50.016;19.890;2022-12-29T00:18:54;3.50;99.90
19692;DHT22;42748;50.016;19.890;2022-12-29T00:21:23;3.60;99.90
19692;DHT22;42748;50.016;19.890;2022-12-29T00:24:17;3.70;99.90
19692;DHT22;42748;50.016;19.890;2022-12-29T00:29:49;4.10;99.90
19692;DHT22;42748;50.016;19.890;2022-12-29T00:32:36;4.10;99.90
19692;DHT22;42748;50.016;19.890;2022-12-29T00:37:52;4.30;99.90
19692;DHT22;42748;50.016;19.890;2022-12-29T00:40:40;4.40;99.90
19692;DHT22;42748;50.016;19.890;2022-12-29T00:43:26;4.50;99.90
19692;DHT22;42748;50.016;19.890;2022-12-29T00:46:11;4.60;99.90
19692;DHT22;42748;50.016;19.890;2022-12-29T00:48:45;4.70;99.90
19692;DHT22;42748;50.016;19.890;2022-12-29T00:51:31;4.70;99.90
19692;DHT22;42748;50.016;19.890;2022-12-29T00:53:58;4.80;99.90
19692;DHT22;42748;50.016;19.890;2022-12-29T00:56:25;4.80;99.90
19692;DHT22;42748;50.016;19.890;2022-12-29T00:58:52;4.80;99.90
19692;DHT22;42748;50.016;19.890;2022-12-29T01:01:20;4.90;99.90
19692;DHT22;42748;50.016;19.890;2022-12-29T01:03:47;4.90;99.90
19692;DHT22;42748;50.016;19.890;2022-12-29T01:06:15;4.90;99.90
19692;DHT22;42748;50.016;19.890;2022-12-29T01:08:44;4.80;99.90
19692;DHT22;42748;50.016;19.890;2022-12-29T01:11:12;4.90;99.90
19692;DHT22;42748;50.016;19.890;2022-12-29T01:13:39;4.90;99.90
19692;DHT22;42748;50.016;19.890;2022-12-29T01:16:10;4.90;99.90
19692;DHT22;42748;50.016;19.890;2022-12-29T01:18:37;4.80;99.90
19692;DHT22;42748;50.016;19.890;2022-12-29T01:21:05;4.80;99.90
19692;DHT22;42748;50.016;19.890;2022-12-29T01:23:33;4.80;99.90
19692;DHT22;42748;50.016;19.890;2022-12-29T01:26:13;4.70;99.90
19692;DHT22;42748;50.016;19.890;2022-12-29T01:28:40;4.70;99.90
19692;DHT22;42748;50.016;19.890;2022-12-29T01:31:09;4.70;99.90
19692;DHT22;42748;50.016;19.890;2022-12-29T01:33:37;4.70;99.90
19692;DHT22;42748;50.016;19.890;2022-12-29T01:36:07;4.80;99.90
19692;DHT22;42748;50.016;19.890;2022-12-29T01:38:36;4.70;99.90
19692;DHT22;42748;50.016;19.890;2022-12-29T01:41:05;4.70;99.90
19692;DHT22;42748;50.016;19.890;2022-12-29T01:43:44;4.70;99.90
19692;DHT22;42748;50.016;19.890;2022-12-29T01:46:20;4.70;99.90
19692;DHT22;42748;50.016;19.890;2022-12-29T01:51:26;4.60;99.90
19692;DHT22;42748;50.016;19.890;2022-12-29T01:53:55;4.70;99.90
19692;DHT22;42748;50.016;19.890;2022-12-29T01:56:25;4.60;99.90
19692;DHT22;42748;50.016;19.890;2022-12-29T01:59:01;4.60;99.90
19692;DHT22;42748;50.016;19.890;2022-12-29T02:01:29;4.60;99.90
19692;DHT22;42748;50.016;19.890;2022-12-29T02:04:00;4.70;99.90
19692;DHT22;42748;50.016;19.890;2022-12-29T02:06:37;4.70;99.90
19692;DHT22;42748;50.016;19.890;2022-12-29T02:09:07;4.70;99.90
19692;DHT22;42748;50.016;19.890;2022-12-29T02:11:35;4.80;99.90
19692;DHT22;42748;50.016;19.890;2022-12-29T02:14:09;4.80;99.90
19692;DHT22;42748;50.016;19.890;2022-12-29T02:41:26;4.80;99.90
19692;DHT22;42748;50.016;19.890;2022-12-29T02:44:22;4.70;99.90
19692;DHT22;42748;50.016;19.890;2022-12-29T02:47:27;4.60;99.90
19692;DHT22;42748;50.016;19.890;2022-12-29T02:52:46;4.20;99.90
19692;DHT22;42748;50.016;19.890;2022-12-29T02:55:15;4.10;99.90
19692;DHT22;42748;50.016;19.890;2022-12-29T02:57:43;4.10;99.90
19692;DHT22;42748;50.016;19.890;2022-12-29T03:00:16;4.00;99.90
19692;DHT22;42748;50.016;19.890;2022-12-29T03:08:49;4.00;99.90
19692;DHT22;42748;50.016;19.890;2022-12-29T03:11:19;4.00;99.90
19692;DHT22;42748;50.016;19.890;2022-12-29T03:14:17;4.10;99.90
19692;DHT22;42748;50.016;19.890;2022-12-29T03:17:15;4.10;99.90
19692;DHT22;42748;50.016;19.890;2022-12-29T03:19:49;4.30;99.90
19692;DHT22;42748;50.016;19.890;2022-12-29T03:22:26;4.30;99.90
19692;DHT22;42748;50.016;19.890;2022-12-29T03:30:41;4.40;99.90
19692;DHT22;42748;50.016;19.890;2022-12-29T03:33:14;4.30;99.90
19692;DHT22;42748;50.016;19.890;2022-12-29T03:35:46;4.20;99.90
19692;DHT22;42748;50.016;19.890;2022-12-29T03:38:21;4.10;99.90
19692;DHT22;42748;50.016;19.890;2022-12-29T03:40:55;4.10;99.90
19692;DHT22;42748;50.016;19.890;2022-12-29T03:43:26;4.20;99.90
19692;DHT22;42748;50.016;19.890;2022-12-29T03:45:55;4.20;99.90
19692;DHT22;42748;50.016;19.890;2022-12-29T03:48:23;4.30;99.90
19692;DHT22;42748;50.016;19.890;2022-12-29T03:50:53;4.30;99.90
19692;DHT22;42748;50.016;19.890;2022-12-29T03:53:21;4.30;99.90
19692;DHT22;42748;50.016;19.890;2022-12-29T03:55:49;4.30;99.90
19692;DHT22;42748;50.016;19.890;2022-12-29T03:58:17;4.20;99.90
19692;DHT22;42748;50.016;19.890;2022-12-29T04:01:03;4.20;99.90
19692;DHT22;42748;50.016;19.890;2022-12-29T04:03:33;4.20;99.90
19692;DHT22;42748;50.016;19.890;2022-12-29T04:06:01;4.20;99.90
19692;DHT22;42748;50.016;19.890;2022-12-29T04:08:37;4.20;99.90
19692;DHT22;42748;50.016;19.890;2022-12-29T04:11:05;4.20;99.90
19692;DHT22;42748;50.016;19.890;2022-12-29T04:13:33;4.30;99.90
19692;DHT22;42748;50.016;19.890;2022-12-29T04:16:09;4.30;99.90
19692;DHT22;42748;50.016;19.890;2022-12-29T04:18:40;4.40;99.90
19692;DHT22;42748;50.016;19.890;2022-12-29T04:21:07;4.40;99.90
19692;DHT22;42748;50.016;19.890;2022-12-29T04:23:38;4.40;99.90
19692;DHT22;42748;50.016;19.890;2022-12-29T04:26:09;4.40;99.90
19692;DHT22;42748;50.016;19.890;2022-12-29T04:28:50;4.50;99.90
19692;DHT22;42748;50.016;19.890;2022-12-29T04:31:37;4.50;99.90
19692;DHT22;42748;50.016;19.890;2022-12-29T04:34:06;4.60;99.90
19692;DHT22;42748;50.016;19.890;2022-12-29T04:36:41;4.60;99.90
19692;DHT22;42748;50.016;19.890;2022-12-29T04:39:08;4.70;99.90
19692;DHT22;42748;50.016;19.890;2022-12-29T04:41:38;4.80;99.90
19692;DHT22;42748;50.016;19.890;2022-12-29T04:44:08;5.00;99.90
19692;DHT22;42748;50.016;19.890;2022-12-29T04:46:58;5.10;99.90
19692;DHT22;42748;50.016;19.890;2022-12-29T04:49:54;5.20;99.90
19692;DHT22;42748;50.016;19.890;2022-12-29T04:52:42;5.30;99.90
19692;DHT22;42748;50.016;19.890;2022-12-29T04:55:12;5.40;99.90
19692;DHT22;42748;50.016;19.890;2022-12-29T04:57:44;5.40;99.90
19692;DHT22;42748;50.016;19.890;2022-12-29T05:00:17;5.50;99.90
19692;DHT22;42748;50.016;19.890;2022-12-29T05:02:45;5.40;99.90
19692;DHT22;42748;50.016;19.890;2022-12-29T05:05:13;5.30;99.90
19692;DHT22;42748;50.016;19.890;2022-12-29T05:07:45;5.30;99.90
19692;DHT22;42748;50.016;19.890;2022-12-29T05:10:15;5.20;99.90
19692;DHT22;42748;50.016;19.890;2022-12-29T05:12:45;5.20;99.90
19692;DHT22;42748;50.016;19.890;2022-12-29T05:15:13;5.20;99.90
19692;DHT22;42748;50.016;19.890;2022-12-29T05:17:42;5.20;99.90
19692;DHT22;42748;50.016;19.890;2022-12-29T05:20:11;5.20;99.90
19692;DHT22;42748;50.016;19.890;2022-12-29T05:22:41;5.20;99.90
19692;DHT22;42748;50.016;19.890;2022-12-29T05:25:09;5.30;99.90
19692;DHT22;42748;50.016;19.890;2022-12-29T05:27:50;5.30;99.90
19692;DHT22;42748;50.016;19.890;2022-12-29T05:30:44;5.30;99.90
19692;DHT22;42748;50.016;19.890;2022-12-29T05:33:11;5.40;99.90
19692;DHT22;42748;50.016;19.890;2022-12-29T05:35:39;5.40;99.90
19692;DHT22;42748;50.016;19.890;2022-12-29T05:38:06;5.50;99.90
19692;DHT22;42748;50.016;19.890;2022-12-29T05:40:34;5.40;99.90
19692;DHT22;42748;50.016;19.890;2022-12-29T05:43:06;5.40;99.90
19692;DHT22;42748;50.016;19.890;2022-12-29T05:45:59;5.30;99.90
19692;DHT22;42748;50.016;19.890;2022-12-29T05:48:53;5.20;99.90
19692;DHT22;42748;50.016;19.890;2022-12-29T05:51:36;5.10;99.90
19692;DHT22;42748;50.016;19.890;2022-12-29T05:54:03;5.00;99.90
19692;DHT22;42748;50.016;19.890;2022-12-29T05:56:31;4.80;99.90
19692;DHT22;42748;50.016;19.890;2022-12-29T05:59:00;4.70;99.90
19692;DHT22;42748;50.016;19.890;2022-12-29T06:01:27;4.70;99.90
19692;DHT22;42748;50.016;19.890;2022-12-29T06:03:55;4.50;99.90
19692;DHT22;42748;50.016;19.890;2022-12-29T06:06:22;4.60;99.90
19692;DHT22;42748;50.016;19.890;2022-12-29T06:08:50;4.60;99.90
19692;DHT22;42748;50.016;19.890;2022-12-29T06:11:18;4.60;99.90
19692;DHT22;42748;50.016;19.890;2022-12-29T06:13:53;4.60;99.90
19692;DHT22;42748;50.016;19.890;2022-12-29T06:16:20;4.70;99.90
19692;DHT22;42748;50.016;19.890;2022-12-29T06:18:50;4.70;99.90
19692;DHT22;42748;50.016;19.890;2022-12-29T06:21:17;4.70;99.90
19692;DHT22;42748;50.016;19.890;2022-12-29T06:23:45;4.70;99.90
19692;DHT22;42748;50.016;19.890;2022-12-29T06:26:14;4.70;99.90
19692;DHT22;42748;50.016;19.890;2022-12-29T06:28:41;4.70;99.90
19692;DHT22;42748;50.016;19.890;2022-12-29T06:31:11;4.60;99.90
19692;DHT22;42748;50.016;19.890;2022-12-29T06:33:39;4.60;99.90
19692;DHT22;42748;50.016;19.890;2022-12-29T06:36:06;4.70;99.90
19692;DHT22;42748;50.016;19.890;2022-12-29T06:38:34;4.70;99.90
19692;DHT22;42748;50.016;19.890;2022-12-29T06:41:02;4.80;99.90
19692;DHT22;42748;50.016;19.890;2022-12-29T06:43:35;4.80;99.90
19692;DHT22;42748;50.016;19.890;2022-12-29T06:46:18;4.80;99.90
19692;DHT22;42748;50.016;19.890;2022-12-29T06:48:46;4.90;99.90
19692;DHT22;42748;50.016;19.890;2022-12-29T06:51:13;4.90;99.90
19692;DHT22;42748;50.016;19.890;2022-12-29T06:53:40;4.90;99.90
19692;DHT22;42748;50.016;19.890;2022-12-29T06:56:07;4.80;99.90
19692;DHT22;42748;50.016;19.890;2022-12-29T06:58:35;4.90;99.90
19692;DHT22;42748;50.016;19.890;2022-12-29T07:01:02;5.00;99.90
19692;DHT22;42748;50.016;19.890;2022-12-29T07:03:29;5.10;99.90
19692;DHT22;42748;50.016;19.890;2022-12-29T07:05:56;5.30;99.90
19692;DHT22;42748;50.016;19.890;2022-12-29T07:08:25;5.50;99.90
19692;DHT22;42748;50.016;19.890;2022-12-29T07:10:52;5.60;99.90
19692;DHT22;42748;50.016;19.890;2022-12-29T07:13:19;5.60;99.90
19692;DHT22;42748;50.016;19.890;2022-12-29T07:15:46;5.70;99.90
19692;DHT22;42748;50.016;19.890;2022-12-29T07:18:13;5.70;99.90
19692;DHT22;42748;50.016;19.890;2022-12-29T07:20:40;5.80;99.90
19692;DHT22;42748;50.016;19.890;2022-12-29T07:23:08;5.80;99.90
19692;DHT22;42748;50.016;19.890;2022-12-29T07:25:35;5.90;99.90
19692;DHT22;42748;50.016;19.890;2022-12-29T07:28:03;5.90;99.90
19692;DHT22;42748;50.016;19.890;2022-12-29T07:30:31;6.00;99.90
19692;DHT22;42748;50.016;19.890;2022-12-29T07:32:58;6.10;99.90
19692;DHT22;42748;50.016;19.890;2022-12-29T07:35:25;6.00;99.90
19692;DHT22;42748;50.016;19.890;2022-12-29T07:37:52;5.80;99.90
19692;DHT22;42748;50.016;19.890;2022-12-29T07:40:19;5.70;99.90
19692;DHT22;42748;50.016;19.890;2022-12-29T07:42:46;5.70;99.90
19692;DHT22;42748;50.016;19.890;2022-12-29T07:45:15;5.70;99.90
19692;DHT22;42748;50.016;19.890;2022-12-29T07:48:02;5.80;99.90
19692;DHT22;42748;50.016;19.890;2022-12-29T07:50:29;5.90;99.90
19692;DHT22;42748;50.016;19.890;2022-12-29T07:52:56;6.00;99.90
19692;DHT22;42748;50.016;19.890;2022-12-29T07:55:24;6.00;99.90
19692;DHT22;42748;50.016;19.890;2022-12-29T07:57:54;6.00;99.90
19692;DHT22;42748;50.016;19.890;2022-12-29T08:00:25;6.10;99.90
19692;DHT22;42748;50.016;19.890;2022-12-29T08:02:52;6.20;99.90
19692;DHT22;42748;50.016;19.890;2022-12-29T08:05:19;6.40;99.90
19692;DHT22;42748;50.016;19.890;2022-12-29T08:07:47;6.80;99.90
19692;DHT22;42748;50.016;19.890;2022-12-29T08:10:15;6.80;99.90
19692;DHT22;42748;50.016;19.890;2022-12-29T08:12:42;6.90;99.90
19692;DHT22;42748;50.016;19.890;2022-12-29T08:15:11;7.00;99.90
19692;DHT22;42748;50.016;19.890;2022-12-29T08:17:39;7.20;99.90
19692;DHT22;42748;50.016;19.890;2022-12-29T08:20:06;7.40;99.90
19692;DHT22;42748;50.016;19.890;2022-12-29T08:22:34;7.60;99.90
19692;DHT22;42748;50.016;19.890;2022-12-29T08:25:01;7.70;99.90
19692;DHT22;42748;50.016;19.890;2022-12-29T08:27:28;7.70;99.90
19692;DHT22;42748;50.016;19.890;2022-12-29T08:29:55;7.50;99.90
19692;DHT22;42748;50.016;19.890;2022-12-29T08:32:22;7.40;99.90
19692;DHT22;42748;50.016;19.890;2022-12-29T08:34:49;7.40;99.90
19692;DHT22;42748;50.016;19.890;2022-12-29T08:37:17;7.40;99.90
19692;DHT22;42748;50.016;19.890;2022-12-29T08:39:44;7.60;99.90
19692;DHT22;42748;50.016;19.890;2022-12-29T08:42:11;7.90;99.90
19692;DHT22;42748;50.016;19.890;2022-12-29T08:44:38;8.10;99.50
19692;DHT22;42748;50.016;19.890;2022-12-29T08:47:06;8.30;97.30
19692;DHT22;42748;50.016;19.890;2022-12-29T08:49:33;8.50;93.90
19692;DHT22;42748;50.016;19.890;2022-12-29T08:52:00;8.70;93.50
19692;DHT22;42748;50.016;19.890;2022-12-29T08:54:27;9.00;92.50
19692;DHT22;42748;50.016;19.890;2022-12-29T08:56:54;9.30;92.40
19692;DHT22;42748;50.016;19.890;2022-12-29T08:59:30;9.30;95.20
19692;DHT22;42748;50.016;19.890;2022-12-29T09:01:58;8.80;99.90
19692;DHT22;42748;50.016;19.890;2022-12-29T09:04:25;8.70;99.90
19692;DHT22;42748;50.016;19.890;2022-12-29T09:06:54;8.80;99.90
19692;DHT22;42748;50.016;19.890;2022-12-29T09:09:21;9.20;98.80
19692;DHT22;42748;50.016;19.890;2022-12-29T09:11:48;9.70;89.50
19692;DHT22;42748;50.016;19.890;2022-12-29T09:14:16;10.20;87.70
19692;DHT22;42748;50.016;19.890;2022-12-29T09:16:43;10.50;85.60
19692;DHT22;42748;50.016;19.890;2022-12-29T09:19:30;11.00;87.60
19692;DHT22;42748;50.016;19.890;2022-12-29T09:21:57;11.50;78.50
19692;DHT22;42748;50.016;19.890;2022-12-29T09:24:24;11.70;76.00
19692;DHT22;42748;50.016;19.890;2022-12-29T09:26:51;11.80;75.40
19692;DHT22;42748;50.016;19.890;2022-12-29T09:29:19;12.10;73.70
19692;DHT22;42748;50.016;19.890;2022-12-29T09:31:46;12.10;72.90
19692;DHT22;42748;50.016;19.890;2022-12-29T09:34:13;12.00;72.40
19692;DHT22;42748;50.016;19.890;2022-12-29T09:36:40;12.20;70.20
19692;DHT22;42748;50.016;19.890;2022-12-29T09:39:08;12.50;65.40
19692;DHT22;42748;50.016;19.890;2022-12-29T09:44:41;13.20;62.80
19692;DHT22;42748;50.016;19.890;2022-12-29T09:47:13;13.20;63.20
19692;DHT22;42748;50.016;19.890;2022-12-29T09:49:52;13.70;61.70
19692;DHT22;42748;50.016;19.890;2022-12-29T09:52:50;13.70;61.60
19692;DHT22;42748;50.016;19.890;2022-12-29T09:55:21;14.10;60.90
19692;DHT22;42748;50.016;19.890;2022-12-29T09:57:56;14.40;59.60
19692;DHT22;42748;50.016;19.890;2022-12-29T10:00:48;14.40;58.90
19692;DHT22;42748;50.016;19.890;2022-12-29T10:03:24;14.30;58.70
19692;DHT22;42748;50.016;19.890;2022-12-29T10:06:24;13.90;59.20
19692;DHT22;42748;50.016;19.890;2022-12-29T10:20:27;13.80;60.40
19692;DHT22;42748;50.016;19.890;2022-12-29T10:23:22;13.70;61.10
19692;DHT22;42748;50.016;19.890;2022-12-29T10:25:54;13.80;60.80
19692;DHT22;42748;50.016;19.890;2022-12-29T10:31:01;13.80;61.30
19692;DHT22;42748;50.016;19.890;2022-12-29T10:33:37;13.80;61.00
19692;DHT22;42748;50.016;19.890;2022-12-29T10:36:37;13.90;61.90
19692;DHT22;42748;50.016;19.890;2022-12-29T10:44:20;14.20;61.80
19692;DHT22;42748;50.016;19.890;2022-12-29T10:46:56;14.10;61.90
19692;DHT22;42748;50.016;19.890;2022-12-29T10:49:25;14.10;62.30
19692;DHT22;42748;50.016;19.890;2022-12-29T10:51:56;13.90;62.30
19692;DHT22;42748;50.016;19.890;2022-12-29T10:54:29;13.90;64.00
19692;DHT22;42748;50.016;19.890;2022-12-29T10:57:11;14.00;63.60
19692;DHT22;42748;50.016;19.890;2022-12-29T10:59:41;13.60;64.00
19692;DHT22;42748;50.016;19.890;2022-12-29T11:07:20;12.90;68.20
19692;DHT22;42748;50.016;19.890;2022-12-29T11:09:53;12.80;70.20
19692;DHT22;42748;50.016;19.890;2022-12-29T11:12:27;12.90;70.80
19692;DHT22;42748;50.016;19.890;2022-12-29T11:17:51;12.90;72.00
19692;DHT22;42748;50.016;19.890;2022-12-29T11:22:58;12.80;73.10
19692;DHT22;42748;50.016;19.890;2022-12-29T11:25:26;12.70;74.20
19692;DHT22;42748;50.016;19.890;2022-12-29T11:28:14;12.80;74.50
19692;DHT22;42748;50.016;19.890;2022-12-29T11:30:42;12.60;76.20
19692;DHT22;42748;50.016;19.890;2022-12-29T11:33:10;12.70;76.20
19692;DHT22;42748;50.016;19.890;2022-12-29T11:35:42;12.50;77.70
19692;DHT22;42748;50.016;19.890;2022-12-29T11:38:22;12.50;79.40
19692;DHT22;42748;50.016;19.890;2022-12-29T11:40:49;12.50;80.00
19692;DHT22;42748;50.016;19.890;2022-12-29T11:46:01;12.80;79.90
19692;DHT22;42748;50.016;19.890;2022-12-29T11:48:41;12.80;80.00
19692;DHT22;42748;50.016;19.890;2022-12-29T11:51:10;12.90;80.00
19692;DHT22;42748;50.016;19.890;2022-12-29T11:53:51;12.70;80.60
19692;DHT22;42748;50.016;19.890;2022-12-29T11:56:30;12.70;81.50
19692;DHT22;42748;50.016;19.890;2022-12-29T12:01:59;12.80;81.20
19692;DHT22;42748;50.016;19.890;2022-12-29T12:04:35;12.50;81.40
19692;DHT22;42748;50.016;19.890;2022-12-29T12:07:13;12.40;83.90
19692;DHT22;42748;50.016;19.890;2022-12-29T12:09:47;12.30;85.20
19692;DHT22;42748;50.016;19.890;2022-12-29T12:12:40;12.30;85.70
19692;DHT22;42748;50.016;19.890;2022-12-29T12:15:16;12.30;88.40
19692;DHT22;42748;50.016;19.890;2022-12-29T12:20:43;12.30;90.20
19692;DHT22;42748;50.016;19.890;2022-12-29T12:26:15;12.30;90.20
19692;DHT22;42748;50.016;19.890;2022-12-29T12:29:09;12.40;90.80
19692;DHT22;42748;50.016;19.890;2022-12-29T12:31:57;12.30;91.30
19692;DHT22;42748;50.016;19.890;2022-12-29T12:34:36;12.30;91.10
19692;DHT22;42748;50.016;19.890;2022-12-29T12:43:37;12.00;94.10
19692;DHT22;42748;50.016;19.890;2022-12-29T12:46:30;12.00;94.40
19692;DHT22;42748;50.016;19.890;2022-12-29T13:16:40;11.90;99.90
19692;DHT22;42748;50.016;19.890;2022-12-29T13:19:23;11.90;99.90
19692;DHT22;42748;50.016;19.890;2022-12-29T13:22:08;12.00;99.90
19692;DHT22;42748;50.016;19.890;2022-12-29T13:41:43;11.70;99.90
19692;DHT22;42748;50.016;19.890;2022-12-29T13:47:44;11.70;99.90
19692;DHT22;42748;50.016;19.890;2022-12-29T13:50:18;11.70;99.90
19692;DHT22;42748;50.016;19.890;2022-12-29T13:53:14;11.60;99.90
19692;DHT22;42748;50.016;19.890;2022-12-29T13:59:00;11.60;99.90
19692;DHT22;42748;50.016;19.890;2022-12-29T14:01:43;11.50;99.90
19692;DHT22;42748;50.016;19.890;2022-12-29T14:04:21;11.40;99.90
19692;DHT22;42748;50.016;19.890;2022-12-29T14:17:44;11.00;99.90
19692;DHT22;42748;50.016;19.890;2022-12-29T14:20:26;11.00;99.90
19692;DHT22;42748;50.016;19.890;2022-12-29T14:25:55;10.80;99.90
19692;DHT22;42748;50.016;19.890;2022-12-29T14:28:27;10.80;99.90
19692;DHT22;42748;50.016;19.890;2022-12-29T14:30:56;10.80;99.90
19692;DHT22;42748;50.016;19.890;2022-12-29T14:33:28;10.80;99.90
19692;DHT22;42748;50.016;19.890;2022-12-29T14:35:57;10.70;99.90
19692;DHT22;42748;50.016;19.890;2022-12-29T14:38:45;10.70;99.90
19692;DHT22;42748;50.016;19.890;2022-12-29T14:41:24;10.60;99.90
19692;DHT22;42748;50.016;19.890;2022-12-29T14:44:17;10.50;99.90
19692;DHT22;42748;50.016;19.890;2022-12-29T14:46:55;10.50;99.90
19692;DHT22;42748;50.016;19.890;2022-12-29T14:49:27;10.50;99.90
19692;DHT22;42748;50.016;19.890;2022-12-29T14:52:23;10.40;99.90
19692;DHT22;42748;50.016;19.890;2022-12-29T14:54:52;10.40;99.90
19692;DHT22;42748;50.016;19.890;2022-12-29T14:59:53;10.30;99.90
19692;DHT22;42748;50.016;19.890;2022-12-29T15:02:25;10.30;99.90
19692;DHT22;42748;50.016;19.890;2022-12-29T15:04:54;10.20;99.90
19692;DHT22;42748;50.016;19.890;2022-12-29T15:07:27;10.20;99.90
19692;DHT22;42748;50.016;19.890;2022-12-29T15:10:00;10.20;99.90
19692;DHT22;42748;50.016;19.890;2022-12-29T15:15:00;10.20;99.90
19692;DHT22;42748;50.016;19.890;2022-12-29T15:17:30;10.20;99.90
19692;DHT22;42748;50.016;19.890;2022-12-29T15:20:00;10.20;99.90
19692;DHT22;42748;50.016;19.890;2022-12-29T15:22:27;10.10;99.90
19692;DHT22;42748;50.016;19.890;2022-12-29T15:24:55;10.00;99.90
19692;DHT22;42748;50.016;19.890;2022-12-29T15:27:26;10.00;99.90
19692;DHT22;42748;50.016;19.890;2022-12-29T15:30:02;9.90;99.90
19692;DHT22;42748;50.016;19.890;2022-12-29T15:32:40;9.80;99.90
19692;DHT22;42748;50.016;19.890;2022-12-29T15:37:55;9.70;99.90
19692;DHT22;42748;50.016;19.890;2022-12-29T15:40:28;9.60;99.90
19692;DHT22;42748;50.016;19.890;2022-12-29T15:45:33;9.50;99.90
19692;DHT22;42748;50.016;19.890;2022-12-29T15:48:02;9.40;99.90
19692;DHT22;42748;50.016;19.890;2022-12-29T15:50:32;9.40;99.90
19692;DHT22;42748;50.016;19.890;2022-12-29T15:53:01;9.30;99.90
19692;DHT22;42748;50.016;19.890;2022-12-29T15:55:40;9.40;99.90
19692;DHT22;42748;50.016;19.890;2022-12-29T15:58:21;9.30;99.90
19692;DHT22;42748;50.016;19.890;2022-12-29T16:00:51;9.30;99.90
19692;DHT22;42748;50.016;19.890;2022-12-29T16:03:20;9.30;99.90
19692;DHT22;42748;50.016;19.890;2022-12-29T16:05:56;9.30;99.90
19692;DHT22;42748;50.016;19.890;2022-12-29T16:10:59;9.30;99.90
19692;DHT22;42748;50.016;19.890;2022-12-29T16:13:37;9.30;99.90
19692;DHT22;42748;50.016;19.890;2022-12-29T16:16:28;9.20;99.90
19692;DHT22;42748;50.016;19.890;2022-12-29T16:18:57;9.10;99.90
19692;DHT22;42748;50.016;19.890;2022-12-29T16:21:28;9.00;99.90
19692;DHT22;42748;50.016;19.890;2022-12-29T16:24:02;8.90;99.90
19692;DHT22;42748;50.016;19.890;2022-12-29T16:26:32;8.90;99.90
19692;DHT22;42748;50.016;19.890;2022-12-29T16:29:05;8.80;99.90
19692;DHT22;42748;50.016;19.890;2022-12-29T16:31:56;8.80;99.90
19692;DHT22;42748;50.016;19.890;2022-12-29T16:37:28;8.60;99.90
19692;DHT22;42748;50.016;19.890;2022-12-29T16:39:56;8.60;99.90
19692;DHT22;42748;50.016;19.890;2022-12-29T16:50:34;8.50;99.90
19692;DHT22;42748;50.016;19.890;2022-12-29T16:53:03;8.40;99.90
19692;DHT22;42748;50.016;19.890;2022-12-29T16:55:32;8.40;99.90
19692;DHT22;42748;50.016;19.890;2022-12-29T16:57:59;8.30;99.90
19692;DHT22;42748;50.016;19.890;2022-12-29T17:00:29;8.30;99.90
19692;DHT22;42748;50.016;19.890;2022-12-29T17:02:59;8.20;99.90
19692;DHT22;42748;50.016;19.890;2022-12-29T17:05:27;8.20;99.90
19692;DHT22;42748;50.016;19.890;2022-12-29T17:07:55;8.20;99.90
19692;DHT22;42748;50.016;19.890;2022-12-29T17:10:28;8.20;99.90
19692;DHT22;42748;50.016;19.890;2022-12-29T17:13:15;8.20;99.90
19692;DHT22;42748;50.016;19.890;2022-12-29T17:15:42;8.30;99.90
19692;DHT22;42748;50.016;19.890;2022-12-29T17:18:10;8.30;99.90
19692;DHT22;42748;50.016;19.890;2022-12-29T17:20:40;8.30;99.90
19692;DHT22;42748;50.016;19.890;2022-12-29T17:23:14;8.30;99.90
19692;DHT22;42748;50.016;19.890;2022-12-29T17:25:50;8.30;99.90
19692;DHT22;42748;50.016;19.890;2022-12-29T17:28:21;8.30;99.90
19692;DHT22;42748;50.016;19.890;2022-12-29T17:30:51;8.30;99.90
19692;DHT22;42748;50.016;19.890;2022-12-29T17:33:20;8.30;99.90
19692;DHT22;42748;50.016;19.890;2022-12-29T17:35:47;8.30;99.90
19692;DHT22;42748;50.016;19.890;2022-12-29T17:40:51;8.20;99.90
19692;DHT22;42748;50.016;19.890;2022-12-29T17:43:18;8.20;99.90
19692;DHT22;42748;50.016;19.890;2022-12-29T17:45:52;8.20;99.90
19692;DHT22;42748;50.016;19.890;2022-12-29T17:48:19;8.20;99.90
19692;DHT22;42748;50.016;19.890;2022-12-29T17:50:50;8.10;99.90
19692;DHT22;42748;50.016;19.890;2022-12-29T17:53:24;8.10;99.90
19692;DHT22;42748;50.016;19.890;2022-12-29T17:55:52;8.10;99.90
19692;DHT22;42748;50.016;19.890;2022-12-29T17:58:29;8.00;99.90
19692;DHT22;42748;50.016;19.890;2022-12-29T18:01:01;8.00;99.90
19692;DHT22;42748;50.016;19.890;2022-12-29T18:03:34;8.00;99.90
19692;DHT22;42748;50.016;19.890;2022-12-29T18:06:03;7.90;99.90
19692;DHT22;42748;50.016;19.890;2022-12-29T18:08:34;7.90;99.90
19692;DHT22;42748;50.016;19.890;2022-12-29T18:11:01;7.90;99.90
19692;DHT22;42748;50.016;19.890;2022-12-29T18:13:31;8.00;99.90
19692;DHT22;42748;50.016;19.890;2022-12-29T18:16:12;8.00;99.90
19692;DHT22;42748;50.016;19.890;2022-12-29T18:18:40;7.90;99.90
19692;DHT22;42748;50.016;19.890;2022-12-29T18:21:14;7.80;99.90
19692;DHT22;42748;50.016;19.890;2022-12-29T18:23:43;7.80;99.90
19692;DHT22;42748;50.016;19.890;2022-12-29T18:26:15;7.80;99.90
19692;DHT22;42748;50.016;19.890;2022-12-29T18:28:50;7.80;99.90
19692;DHT22;42748;50.016;19.890;2022-12-29T18:31:22;7.80;99.90
19692;DHT22;42748;50.016;19.890;2022-12-29T18:33:51;7.80;99.90
19692;DHT22;42748;50.016;19.890;2022-12-29T18:36:19;7.90;99.90
19692;DHT22;42748;50.016;19.890;2022-12-29T18:38:47;7.80;99.90
19692;DHT22;42748;50.016;19.890;2022-12-29T18:41:19;7.80;99.90
19692;DHT22;42748;50.016;19.890;2022-12-29T18:43:46;7.80;99.90
19692;DHT22;42748;50.016;19.890;2022-12-29T18:46:14;7.70;99.90
19692;DHT22;42748;50.016;19.890;2022-12-29T18:48:49;7.60;99.90
19692;DHT22;42748;50.016;19.890;2022-12-29T18:51:19;7.60;99.90
19692;DHT22;42748;50.016;19.890;2022-12-29T18:53:47;7.50;99.90
19692;DHT22;42748;50.016;19.890;2022-12-29T18:56:15;7.60;99.90
19692;DHT22;42748;50.016;19.890;2022-12-29T18:58:42;7.60;99.90
19692;DHT22;42748;50.016;19.890;2022-12-29T19:01:20;7.60;99.90
19692;DHT22;42748;50.016;19.890;2022-12-29T19:03:48;7.60;99.90
19692;DHT22;42748;50.016;19.890;2022-12-29T19:06:16;7.60;99.90
19692;DHT22;42748;50.016;19.890;2022-12-29T19:08:43;7.60;99.90
19692;DHT22;42748;50.016;19.890;2022-12-29T19:11:10;7.60;99.90